Time;durP1;ratioP1;P1;durP2;ratioP2;P2;SDS_P1;SDS_P2;PMS_P1;PMS_P2;Temp;Humidity;BMP_temperature;BMP_pressure;BME280_temperature;BME280_humidity;BME280_pressure;Samples;Min_cycle;Max_cycle;Signal;HPM_P1;HPM_P2
2023/03/18 00:02:43;;;;;;;19.92;14.95;;;;;;;9.54;100.00;100727.31;10419566;28;20394;-77
2023/03/18 00:07:45;;;;;;;19.65;15.15;;;;;;;9.51;100.00;100722.28;10418914;28;20096;-78
2023/03/18 00:12:46;;;;;;;23.95;15.30;;;;;;;9.51;100.00;100714.19;10419753;28;20409;-79
2023/03/18 00:17:47;;;;;;;24.15;15.70;;;;;;;9.59;100.00;100723.19;10419804;28;20091;-77
2023/03/18 00:22:47;;;;;;;17.58;15.75;;;;;;;9.61;100.00;100727.38;10421124;28;20421;-79
2023/03/18 00:27:48;;;;;;;21.73;17.55;;;;;;;9.62;100.00;100722.78;10418264;28;20119;-78
2023/03/18 00:32:49;;;;;;;24.35;14.25;;;;;;;9.64;100.00;100720.75;10419795;28;20126;-77
2023/03/18 00:37:49;;;;;;;27.17;16.27;;;;;;;9.70;100.00;100719.94;10419343;28;20385;-77
2023/03/18 00:42:56;;;;;;;24.88;16.25;;;;;;;9.70;100.00;100714.53;10419221;28;20061;-78
2023/03/18 00:47:56;;;;;;;;;;;;;;;9.79;100.00;100713.34;10421335;28;20060;-76
2023/03/18 00:52:58;;;;;;;36.20;18.17;;;;;;;9.83;100.00;100722.75;10419719;28;19909;-78
2023/03/18 00:57:58;;;;;;;26.05;16.88;;;;;;;9.78;100.00;100719.78;10419044;28;20033;-78
2023/03/18 01:02:59;;;;;;;32.40;18.13;;;;;;;9.78;100.00;100720.63;10403443;28;20072;-77
2023/03/18 01:07:59;;;;;;;30.98;16.33;;;;;;;9.81;100.00;100721.28;10420229;28;20037;-77
2023/03/18 01:12:59;;;;;;;25.15;15.45;;;;;;;9.87;100.00;100715.09;10418995;28;20402;-77
2023/03/18 01:18:00;;;;;;;27.35;15.85;;;;;;;9.90;100.00;100723.63;10417338;28;20084;-80
2023/03/18 01:23:01;;;;;;;25.13;15.55;;;;;;;9.96;100.00;100725.56;10417244;28;20038;-77
2023/03/18 01:28:01;;;;;;;24.08;14.48;;;;;;;9.97;100.00;100729.91;10417788;28;20422;-76
2023/03/18 01:33:03;;;;;;;20.95;15.75;;;;;;;9.94;100.00;100726.78;10416848;28;20072;-77
2023/03/18 01:38:04;;;;;;;20.77;15.63;;;;;;;9.87;100.00;100724.03;10417586;28;20030;-78
2023/03/18 01:43:22;;;;;;;16.50;14.02;;;;;;;9.75;100.00;100722.88;10417125;28;20108;-78
2023/03/18 01:48:25;;;;;;;22.88;14.75;;;;;;;9.67;100.00;100729.28;10416251;28;20493;-78
2023/03/18 01:53:39;;;;;;;19.83;15.68;;;;;;;9.65;100.00;100734.06;10415110;28;20037;-78
2023/03/18 01:58:42;;;;;;;25.90;15.30;;;;;;;9.66;100.00;100740.28;10414556;28;20028;-76
2023/03/18 02:03:43;;;;;;;26.33;16.50;;;;;;;9.69;100.00;100734.50;10414605;28;20469;-77
2023/03/18 02:08:43;;;;;;;21.83;14.68;;;;;;;9.78;100.00;100723.34;10398169;28;20033;-79
2023/03/18 02:13:44;;;;;;;37.00;15.73;;;;;;;9.88;100.00;100736.50;10398244;28;20117;-77
2023/03/18 02:18:48;;;;;;;25.58;16.23;;;;;;;9.93;100.00;100731.34;10400492;28;20571;-78
2023/03/18 02:24:04;;;;;;;17.73;14.80;;;;;;;10.00;100.00;100729.53;10396938;28;20034;-78
2023/03/18 02:29:05;;;;;;;18.33;15.93;;;;;;;10.07;100.00;100734.16;10414027;28;20033;-78
2023/03/18 02:34:06;;;;;;;21.92;16.00;;;;;;;10.16;100.00;100735.66;10413749;28;20207;-79
2023/03/18 02:39:07;;;;;;;29.02;16.35;;;;;;;10.23;100.00;100733.81;10397551;28;20083;-78
2023/03/18 02:44:08;;;;;;;20.92;17.10;;;;;;;10.28;100.00;100728.69;10396821;28;20033;-78
2023/03/18 02:49:08;;;;;;;20.55;15.23;;;;;;;10.37;100.00;100737.47;10396766;28;20083;-77
2023/03/18 02:54:14;;;;;;;19.38;15.25;;;;;;;10.40;100.00;100743.34;10413997;28;20539;-77
2023/03/18 02:59:14;;;;;;;21.30;13.65;;;;;;;10.41;100.00;100739.59;10397578;28;20044;-76
2023/03/18 03:04:15;;;;;;;18.98;14.15;;;;;;;10.47;100.00;100738.78;10414747;28;20152;-76
2023/03/18 03:09:16;;;;;;;20.92;13.88;;;;;;;10.53;100.00;100749.81;10414167;28;20072;-78
2023/03/18 03:14:16;;;;;;;19.25;13.90;;;;;;;10.57;100.00;100743.00;10414397;28;20094;-78
2023/03/18 03:19:16;;;;;;;19.60;13.30;;;;;;;10.62;100.00;100756.75;10415970;28;20119;-78
2023/03/18 03:24:17;;;;;;;19.38;12.93;;;;;;;10.61;100.00;100744.25;10416272;28;20445;-77
2023/03/18 03:29:17;;;;;;;21.27;13.52;;;;;;;10.60;100.00;100758.84;10423140;28;20056;-78
2023/03/18 03:34:18;;;;;;;28.38;13.50;;;;;;;10.51;100.00;100771.69;10409331;28;20385;-79
2023/03/18 03:39:18;;;;;;;18.70;13.63;;;;;;;10.39;100.00;100778.72;10421603;28;20053;-75
2023/03/18 03:44:19;;;;;;;23.02;14.73;;;;;;;10.23;100.00;100766.28;10420624;28;20029;-74
2023/03/18 03:49:19;;;;;;;18.27;14.38;;;;;;;10.20;100.00;100777.53;10403007;28;20037;-74
2023/03/18 03:54:20;;;;;;;22.92;15.10;;;;;;;10.13;100.00;100779.34;10418811;28;20116;-73
2023/03/18 03:59:20;;;;;;;21.00;13.18;;;;;;;10.08;100.00;100765.56;10419335;28;20041;-72
2023/03/18 04:04:21;;;;;;;17.52;14.48;;;;;;;10.04;100.00;100765.13;10386291;28;20436;-73
2023/03/18 04:09:21;;;;;;;19.90;14.82;;;;;;;10.01;100.00;100765.53;10419690;28;20041;-74
2023/03/18 04:14:22;;;;;;;20.00;15.73;;;;;;;10.00;100.00;100785.50;10418722;28;20397;-72
2023/03/18 04:19:23;;;;;;;22.00;14.13;;;;;;;10.00;100.00;100801.72;10417865;28;20095;-74
2023/03/18 04:24:25;;;;;;;26.60;15.95;;;;;;;9.96;100.00;100803.16;10419480;28;20033;-73
2023/03/18 04:29:25;;;;;;;15.68;13.52;;;;;;;9.90;100.00;100812.06;10419891;28;20038;-73
2023/03/18 04:34:26;;;;;;;20.45;15.38;;;;;;;9.93;100.00;100811.66;10417520;28;20457;-73
2023/03/18 04:39:26;;;;;;;22.00;14.98;;;;;;;9.90;100.00;100812.88;10418176;28;20034;-74
2023/03/18 04:44:27;;;;;;;26.70;15.38;;;;;;;9.81;100.00;100819.47;10417928;28;20056;-74
2023/03/18 04:49:27;;;;;;;19.02;15.50;;;;;;;9.76;100.00;100825.47;10420083;28;20140;-74
2023/03/18 04:54:28;;;;;;;15.27;13.68;;;;;;;9.72;100.00;100826.03;10418624;28;20355;-75
2023/03/18 04:59:28;;;;;;;30.60;17.88;;;;;;;9.68;100.00;100832.88;10417228;28;20385;-74
2023/03/18 05:04:29;;;;;;;23.55;14.85;;;;;;;9.72;100.00;100831.44;10400674;28;20065;-75
2023/03/18 05:09:30;;;;;;;24.02;13.18;;;;;;;9.79;100.00;100826.94;10418027;28;20516;-76
2023/03/18 05:14:30;;;;;;;23.02;12.70;;;;;;;9.85;100.00;100836.97;10418213;28;20029;-75
2023/03/18 05:19:31;;;;;;;18.05;14.10;;;;;;;9.89;100.00;100827.47;10417243;28;20033;-75
2023/03/18 05:24:31;;;;;;;15.48;13.82;;;;;;;9.91;100.00;100825.38;10419256;28;20504;-75
2023/03/18 05:29:32;;;;;;;20.02;14.43;;;;;;;9.94;100.00;100824.16;10399341;28;20049;-75
2023/03/18 05:34:33;;;;;;;22.98;16.65;;;;;;;9.91;100.00;100828.09;10417724;28;20436;-76
2023/03/18 05:39:34;;;;;;;19.10;14.90;;;;;;;9.89;100.00;100824.75;10417055;28;20037;-74
2023/03/18 05:44:35;;;;;;;23.98;15.88;;;;;;;9.82;100.00;100817.59;10415761;28;20188;-74
2023/03/18 05:49:36;;;;;;;23.65;15.85;;;;;;;9.62;100.00;100812.84;10416171;28;20040;-74
2023/03/18 05:54:36;;;;;;;21.38;15.35;;;;;;;9.43;100.00;100808.91;10415059;28;20108;-74
2023/03/18 05:59:37;;;;;;;24.00;14.77;;;;;;;9.29;100.00;100826.84;10397670;28;20083;-74
2023/03/18 06:04:39;;;;;;;17.27;13.35;;;;;;;9.21;100.00;100836.94;10415748;28;20048;-75
2023/03/18 06:09:39;;;;;;;26.73;16.55;;;;;;;9.16;100.00;100837.53;10415056;28;20029;-74
2023/03/18 06:14:39;;;;;;;26.63;16.08;;;;;;;9.09;100.00;100847.38;10397871;28;20545;-75
2023/03/18 06:19:40;;;;;;;25.67;15.30;;;;;;;9.17;100.00;100859.97;10414820;28;20037;-75
2023/03/18 06:24:40;;;;;;;20.98;15.52;;;;;;;9.46;100.00;100870.69;10415993;28;20167;-75
2023/03/18 06:29:41;;;;;;;21.48;16.42;;;;;;;9.82;100.00;100875.22;10414301;28;20033;-75
2023/03/18 06:34:41;;;;;;;22.65;16.83;;;;;;;10.32;100.00;100883.41;10415242;28;20053;-75
2023/03/18 06:39:43;;;;;;;27.70;17.58;;;;;;;10.83;100.00;100880.41;10396940;28;20477;-75
2023/03/18 06:44:49;;;;;;;20.73;17.13;;;;;;;10.80;100.00;100881.66;10413381;28;20041;-77
2023/03/18 06:49:49;;;;;;;20.50;15.75;;;;;;;11.56;100.00;100889.69;10414948;28;20135;-78
2023/03/18 06:54:50;;;;;;;20.55;17.92;;;;;;;12.03;100.00;100887.94;10420081;28;20069;-78
2023/03/18 06:59:51;;;;;;;18.48;16.17;;;;;;;12.57;100.00;100892.31;10444589;28;20029;-77
2023/03/18 07:04:51;;;;;;;16.80;14.85;;;;;;;12.77;100.00;100892.28;10451771;28;20038;-78
2023/03/18 07:09:52;;;;;;;19.98;14.35;;;;;;;12.88;100.00;100895.38;10434260;28;20124;-77
2023/03/18 07:14:53;;;;;;;21.98;13.48;;;;;;;13.28;100.00;100896.13;10420574;28;20400;-78
2023/03/18 07:19:53;;;;;;;13.73;11.65;;;;;;;13.49;100.00;100894.97;10422375;28;20033;-79
2023/03/18 07:24:53;;;;;;;14.82;11.95;;;;;;;13.93;100.00;100901.44;10420957;28;20038;-79
2023/03/18 07:29:54;;;;;;;14.23;12.50;;;;;;;14.02;100.00;100902.84;10421180;28;20045;-79
2023/03/18 07:34:55;;;;;;;16.63;13.27;;;;;;;14.08;100.00;100901.97;10421406;28;20442;-79
2023/03/18 07:39:56;;;;;;;19.58;13.55;;;;;;;14.58;100.00;100895.69;10387601;28;20037;-78
2023/03/18 07:44:56;;;;;;;14.98;12.73;;;;;;;15.24;100.00;100903.19;10421169;28;20040;-78
2023/03/18 07:49:57;;;;;;;17.98;13.43;;;;;;;15.43;100.00;100912.19;10418912;28;20068;-75
2023/03/18 07:54:58;;;;;;;13.48;11.40;;;;;;;15.92;100.00;100915.75;10420109;28;20048;-78
2023/03/18 07:59:58;;;;;;;14.88;11.65;;;;;;;15.23;100.00;100920.63;10420035;28;20469;-77
2023/03/18 08:04:59;;;;;;;16.05;11.05;;;;;;;14.82;100.00;100915.81;10421149;28;20045;-78
2023/03/18 08:09:59;;;;;;;21.67;13.20;;;;;;;15.65;100.00;100903.50;10421103;28;20121;-75
2023/03/18 08:14:59;;;;;;;15.80;10.30;;;;;;;16.39;100.00;100907.66;10423169;28;20392;-77
2023/03/18 08:20:00;;;;;;;13.90;9.82;;;;;;;16.42;100.00;100918.09;10419513;28;20450;-73
2023/03/18 08:25:00;;;;;;;15.90;9.68;;;;;;;16.23;100.00;100919.25;10419490;28;20112;-77
2023/03/18 08:30:01;;;;;;;12.25;9.48;;;;;;;16.92;100.00;100923.16;10419408;28;20081;-73
2023/03/18 08:35:01;;;;;;;11.13;9.68;;;;;;;17.28;100.00;100918.47;10419748;28;20081;-72
2023/03/18 08:40:03;;;;;;;10.85;9.75;;;;;;;17.59;100.00;100924.56;10416468;28;20072;-72
2023/03/18 08:45:03;;;;;;;14.13;11.05;;;;;;;17.71;100.00;100939.06;10381920;28;32268;-73
2023/03/18 08:50:04;;;;;;;17.60;11.05;;;;;;;17.44;100.00;100942.34;10419859;28;20030;-73
2023/03/18 08:55:06;;;;;;;16.90;10.98;;;;;;;18.54;100.00;100951.28;10417445;28;20037;-73
2023/03/18 09:00:07;;;;;;;14.18;11.68;;;;;;;17.77;100.00;100962.75;10418643;28;20117;-74
2023/03/18 09:05:08;;;;;;;13.20;10.77;;;;;;;16.80;100.00;100968.00;10416522;28;20123;-73
2023/03/18 09:10:11;;;;;;;17.42;9.80;;;;;;;17.58;100.00;100956.59;10417215;28;20041;-72
2023/03/18 09:15:13;;;;;;;21.83;11.30;;;;;;;18.20;100.00;100952.31;10415963;28;20037;-73
2023/03/18 09:20:15;;;;;;;14.98;11.60;;;;;;;18.12;100.00;100950.78;10415505;28;20038;-73
2023/03/18 09:25:15;;;;;;;18.85;11.52;;;;;;;18.70;100.00;100940.53;10399778;28;20033;-73
2023/03/18 09:30:16;;;;;;;11.15;9.82;;;;;;;18.61;100.00;100956.59;10416813;28;20483;-73
2023/03/18 09:35:17;;;;;;;14.95;8.77;;;;;;;17.11;100.00;100970.38;10417276;28;20045;-72
2023/03/18 09:40:28;;;;;;;16.13;9.82;;;;;;;15.64;100.00;100967.38;10398409;28;20084;-72
2023/03/18 09:45:49;;;;;;;8.82;8.02;;;;;;;15.48;100.00;100972.38;10414769;28;20465;-72
2023/03/18 09:50:53;;;;;;;14.95;11.75;;;;;;;16.10;100.00;100958.56;10414945;28;20468;-72
2023/03/18 09:55:55;;;;;;;16.73;14.07;;;;;;;15.74;100.00;100970.41;10414393;28;20030;-72
2023/03/18 10:00:59;;;;;;;17.77;15.60;;;;;;;15.41;100.00;100977.09;10397511;28;20044;-73
2023/03/18 10:06:07;;;;;;;19.65;14.68;;;;;;;15.15;100.00;100969.19;10413142;28;20397;-72
2023/03/18 10:11:33;;;;;;;15.82;13.48;;;;;;;15.41;100.00;100974.34;10399034;28;20133;-71
2023/03/18 10:16:43;;;;;;;16.80;12.63;;;;;;;15.62;100.00;100964.03;10398276;28;20449;-74
2023/03/18 10:21:54;;;;;;;16.80;13.23;;;;;;;15.62;100.00;100964.84;10382126;28;20037;-73
2023/03/18 10:27:29;;;;;;;12.48;10.07;;;;;;;15.48;100.00;100977.00;10414545;28;20389;-73
2023/03/18 10:32:51;;;;;;;13.30;10.50;;;;;;;15.17;100.00;100983.44;10390260;28;20114;-72
2023/03/18 10:38:03;;;;;;;14.30;9.80;;;;;;;15.46;100.00;100977.22;10413750;28;20045;-73
2023/03/18 10:43:05;;;;;;;10.45;8.20;;;;;;;15.77;100.00;100978.16;10413685;28;20060;-72
2023/03/18 10:48:09;;;;;;;10.82;9.27;;;;;;;15.50;100.00;100986.59;10412879;28;20032;-74
2023/03/18 10:53:24;;;;;;;17.88;9.45;;;;;;;15.15;100.00;100991.00;10397020;28;20037;-74
2023/03/18 10:58:26;;;;;;;9.20;7.50;;;;;;;14.95;100.00;101002.94;10412427;28;20083;-73
2023/03/18 11:03:29;;;;;;;12.98;7.50;;;;;;;14.67;100.00;101000.66;10413669;28;20045;-73
2023/03/18 11:08:39;;;;;;;26.00;9.18;;;;;;;14.47;100.00;101006.22;10413657;28;20038;-74
2023/03/18 11:13:48;;;;;;;16.05;9.32;;;;;;;14.41;100.00;101016.13;10396670;28;20083;-72
2023/03/18 11:18:48;;;;;;;16.30;9.55;;;;;;;14.00;100.00;101000.22;10414468;28;20061;-71
2023/03/18 11:24:06;;;;;;;17.27;8.75;;;;;;;13.82;100.00;100997.41;10395259;28;20112;-74
2023/03/18 11:29:12;;;;;;;13.98;9.98;;;;;;;13.60;100.00;100981.38;10397749;28;20037;-73
2023/03/18 11:34:15;;;;;;;19.60;9.83;;;;;;;13.63;100.00;100953.75;10396963;28;20056;-73
2023/03/18 11:39:16;;;;;;;15.75;8.82;;;;;;;13.96;100.00;100966.34;10412752;28;20029;-72
2023/03/18 11:44:18;;;;;;;9.95;8.40;;;;;;;14.42;100.00;100962.47;10413567;28;20037;-72
2023/03/18 11:49:21;;;;;;;10.80;8.98;;;;;;;14.73;100.00;100953.44;10419172;28;20037;-78
2023/03/18 11:54:44;;;;;;;11.20;8.60;;;;;;;15.06;100.00;100964.03;10420785;28;20041;-75
2023/03/18 12:00:12;;;;;;;11.10;8.07;;;;;;;15.86;100.00;100964.97;10418833;28;20036;-74
2023/03/18 12:05:43;;;;;;;9.73;7.90;;;;;;;15.64;100.00;100970.94;10414721;28;20453;-74
2023/03/18 12:11:08;;;;;;;9.15;7.07;;;;;;;15.86;100.00;100956.78;10419836;28;20025;-74
2023/03/18 12:16:19;;;;;;;12.80;7.45;;;;;;;15.34;100.00;100971.69;10402864;28;20453;-74
2023/03/18 12:21:44;;;;;;;11.05;7.25;;;;;;;15.86;100.00;100959.53;10421795;28;20029;-72
2023/03/18 12:27:14;;;;;;;14.35;6.82;;;;;;;16.06;100.00;100970.19;10418426;28;20053;-74
2023/03/18 12:32:34;;;;;;;9.13;5.43;;;;;;;15.85;100.00;100957.88;10403105;28;20038;-73
2023/03/18 12:37:58;;;;;;;12.52;5.53;;;;;;;16.17;100.00;100956.53;10385251;28;20048;-74
2023/03/18 12:43:17;;;;;;;10.55;5.13;;;;;;;16.95;100.00;100947.28;10419262;28;20041;-77
2023/03/18 12:48:21;;;;;;;6.20;3.65;;;;;;;17.13;100.00;100945.47;10418649;28;20485;-74
2023/03/18 12:53:29;;;;;;;6.80;4.72;;;;;;;16.99;100.00;100944.09;10419521;28;20025;-71
2023/03/18 12:58:36;;;;;;;7.70;3.75;;;;;;;16.66;100.00;100938.13;10398987;28;20105;-74
2023/03/18 13:03:40;;;;;;;3.85;3.05;;;;;;;18.05;100.00;100933.69;10417654;28;20030;-73
2023/03/18 13:09:09;;;;;;;5.43;2.58;;;;;;;18.61;100.00;100933.81;10415394;28;20037;-73
2023/03/18 13:14:34;;;;;;;2.67;2.47;;;;;;;18.52;100.00;100933.41;10403010;28;20040;-77
2023/03/18 13:19:35;;;;;;;3.58;3.25;;;;;;;18.33;94.79;100939.13;10417328;28;20033;-77
2023/03/18 13:24:39;;;;;;;6.28;3.85;;;;;;;18.31;96.88;100938.56;10416865;28;20028;-76
2023/03/18 13:30:06;;;;;;;4.85;4.35;;;;;;;18.72;100.00;100933.72;10414361;28;20025;-75
2023/03/18 13:35:38;;;;;;;5.22;3.55;;;;;;;18.46;96.68;100937.97;10399023;28;20049;-76
2023/03/18 13:41:10;;;;;;;5.68;4.32;;;;;;;17.13;100.00;100926.34;10417878;28;20045;-77
2023/03/18 13:46:19;;;;;;;4.88;3.25;;;;;;;17.38;96.81;100915.94;10402611;28;20053;-72
2023/03/18 13:51:43;;;;;;;8.40;3.55;;;;;;;17.52;100.00;100910.19;10400927;28;20069;-73
2023/03/18 13:56:54;;;;;;;3.92;2.92;;;;;;;18.06;94.61;100899.72;10415800;28;20033;-75
2023/03/18 14:02:00;;;;;;;2.72;2.53;;;;;;;18.54;90.52;100896.41;10385858;28;20034;-77
2023/03/18 14:07:17;;;;;;;2.53;2.33;;;;;;;18.44;85.53;100904.50;10400676;28;20044;-76
2023/03/18 14:12:17;;;;;;;;;;;;;;;17.53;100.00;100888.03;10399402;28;20487;-76
2023/03/18 14:17:27;;;;;;;1.93;1.83;;;;;;;17.40;94.14;100885.59;10414818;28;19959;-75
2023/03/18 14:22:32;;;;;;;3.75;3.30;;;;;;;16.91;100.00;100896.03;10384319;28;20807;-77
2023/03/18 14:27:50;;;;;;;4.15;3.13;;;;;;;16.27;100.00;100884.94;10416471;28;20116;-73
2023/03/18 14:33:12;;;;;;;3.22;2.70;;;;;;;15.91;100.00;100903.16;10400347;28;20033;-75
2023/03/18 14:38:22;;;;;;;4.05;3.65;;;;;;;15.85;100.00;100893.16;10414450;28;20122;-78
2023/03/18 14:43:35;;;;;;;3.30;2.70;;;;;;;15.89;100.00;100883.44;10413990;28;20044;-76
2023/03/18 14:48:35;;;;;;;5.68;2.83;;;;;;;16.02;99.71;100887.88;10412890;28;20033;-78
2023/03/18 14:53:47;;;;;;;3.92;2.78;;;;;;;15.43;100.00;100876.69;10414002;28;20521;-76
2023/03/18 14:58:52;;;;;;;6.53;2.80;;;;;;;15.23;100.00;100867.94;10413749;28;20467;-76
2023/03/18 15:03:54;;;;;;;4.25;2.65;;;;;;;15.46;100.00;100878.16;10413773;28;20036;-75
2023/03/18 15:09:41;;;;;;;8.23;3.75;;;;;;;15.45;100.00;100877.31;10412653;28;20038;-76
2023/03/18 15:14:41;;;;;;;11.23;3.22;;;;;;;15.48;100.00;100860.47;10411159;28;20194;-75
2023/03/18 15:19:42;;;;;;;3.92;2.80;;;;;;;15.42;100.00;100855.13;10414892;28;20469;-77
2023/03/18 15:24:43;;;;;;;2.90;2.70;;;;;;;15.31;100.00;100851.25;10421396;28;20053;-79
2023/03/18 15:29:49;;;;;;;4.85;2.70;;;;;;;15.14;100.00;100839.31;10420800;28;20084;-74
2023/03/18 15:35:11;;;;;;;5.55;4.22;;;;;;;15.19;100.00;100844.91;10421565;28;20042;-74
2023/03/18 15:40:21;;;;;;;9.45;3.35;;;;;;;15.23;100.00;100838.78;10421861;28;20057;-73
2023/03/18 15:45:24;;;;;;;3.85;2.63;;;;;;;15.23;100.00;100836.03;10422368;28;20029;-74
2023/03/18 15:50:27;;;;;;;3.13;2.92;;;;;;;15.21;100.00;100834.59;10388475;28;20540;-74
2023/03/18 15:55:45;;;;;;;4.20;2.50;;;;;;;15.29;100.00;100828.84;10420271;28;20049;-73
2023/03/18 16:00:45;;;;;;;2.83;2.58;;;;;;;15.37;100.00;100820.31;10421129;28;20034;-73
2023/03/18 16:05:46;;;;;;;3.83;2.88;;;;;;;15.45;100.00;100830.09;10420100;28;20029;-74
2023/03/18 16:10:57;;;;;;;3.85;3.20;;;;;;;15.33;100.00;100819.94;10421517;28;20335;-74
2023/03/18 16:15:57;;;;;;;2.30;2.13;;;;;;;15.23;100.00;100816.94;10418911;28;20076;-74
2023/03/18 16:20:58;;;;;;;5.65;2.90;;;;;;;15.08;100.00;100822.78;10417673;28;20465;-75
2023/03/18 16:25:59;;;;;;;2.80;2.60;;;;;;;14.96;100.00;100824.63;10419275;28;20037;-73
2023/03/18 16:30:59;;;;;;;4.57;2.92;;;;;;;14.93;100.00;100822.34;10418714;28;20137;-74
2023/03/18 16:36:01;;;;;;;5.75;2.67;;;;;;;14.88;100.00;100824.94;10418726;28;20049;-74
2023/03/18 16:41:01;;;;;;;4.20;2.22;;;;;;;14.89;100.00;100818.41;10419118;28;20030;-75
2023/03/18 16:46:05;;;;;;;4.30;2.65;;;;;;;14.84;100.00;100826.47;10420811;28;20516;-74
2023/03/18 16:51:05;;;;;;;4.10;2.20;;;;;;;14.82;100.00;100825.84;10418962;28;20025;-74
2023/03/18 16:56:12;;;;;;;2.13;2.03;;;;;;;14.80;100.00;100827.97;10419362;28;20467;-74
2023/03/18 17:01:18;;;;;;;2.60;2.30;;;;;;;14.72;100.00;100834.56;10416927;28;20497;-74
2023/03/18 17:06:18;;;;;;;3.00;2.22;;;;;;;14.70;100.00;100833.94;10418068;28;20040;-76
2023/03/18 17:11:20;;;;;;;3.70;1.92;;;;;;;14.66;100.00;100838.19;10416972;28;20067;-74
2023/03/18 17:16:21;;;;;;;4.30;2.58;;;;;;;14.61;100.00;100836.16;10417813;28;20083;-73
2023/03/18 17:21:21;;;;;;;4.72;2.38;;;;;;;14.61;100.00;100844.34;10416993;28;20469;-74
2023/03/18 17:26:23;;;;;;;1.73;1.63;;;;;;;14.57;100.00;100847.72;10417863;28;20385;-74
2023/03/18 17:31:23;;;;;;;2.85;2.65;;;;;;;14.57;100.00;100850.44;10384973;28;20117;-73
2023/03/18 17:36:24;;;;;;;5.75;2.95;;;;;;;14.47;100.00;100858.28;10415592;28;20136;-74
2023/03/18 17:41:24;;;;;;;37.88;3.38;;;;;;;14.15;100.00;100864.63;10400289;28;20041;-78
2023/03/18 17:46:25;;;;;;;3.22;2.22;;;;;;;13.71;100.00;100881.88;10420777;28;20033;-81
2023/03/18 17:51:26;;;;;;;2.13;2.03;;;;;;;13.34;100.00;100875.41;10407244;28;20038;-77
2023/03/18 17:56:27;;;;;;;5.30;2.78;;;;;;;13.08;100.00;100869.00;10416049;28;20025;-77
2023/03/18 18:01:28;;;;;;;7.45;3.65;;;;;;;12.91;100.00;100857.75;10414911;28;20050;-77
2023/03/18 18:06:29;;;;;;;4.63;3.10;;;;;;;12.60;100.00;100939.13;10414981;28;20064;-72
2023/03/18 18:11:31;;;;;;;4.03;2.85;;;;;;;11.93;100.00;100930.09;10415043;28;20089;-72
2023/03/18 18:16:31;;;;;;;15.98;4.50;;;;;;;11.76;100.00;100900.59;10414749;28;20025;-74
2023/03/18 18:21:31;;;;;;;8.38;5.00;;;;;;;11.72;100.00;100899.34;10415096;28;20069;-75
2023/03/18 18:26:32;;;;;;;6.35;3.92;;;;;;;11.69;100.00;100894.31;10397147;28;20192;-75
2023/03/18 18:31:34;;;;;;;3.47;3.25;;;;;;;11.69;100.00;100893.50;10397681;28;20041;-74
2023/03/18 18:36:35;;;;;;;6.05;3.22;;;;;;;11.69;100.00;100893.50;10418055;28;20053;-74
2023/03/18 18:41:36;;;;;;;6.22;3.85;;;;;;;11.64;100.00;100897.63;10417006;28;20033;-74
2023/03/18 18:46:36;;;;;;;4.75;4.25;;;;;;;11.70;100.00;100897.88;10397430;28;20491;-74
2023/03/18 18:51:37;;;;;;;3.72;3.33;;;;;;;11.64;100.00;100902.22;10413412;28;20037;-74
2023/03/18 18:56:37;;;;;;;13.57;5.60;;;;;;;11.62;100.00;100898.91;10414470;28;20026;-75
2023/03/18 19:01:38;;;;;;;6.22;4.53;;;;;;;11.67;100.00;100914.53;10413276;28;20029;-75
2023/03/18 19:06:38;;;;;;;8.35;4.20;;;;;;;11.59;100.00;100926.44;10431221;28;20030;-74
2023/03/18 19:11:39;;;;;;;10.77;4.32;;;;;;;11.47;100.00;100923.47;10414063;28;20030;-74
2023/03/18 19:16:39;;;;;;;6.38;2.42;;;;;;;11.38;100.00;100927.38;10416307;28;20049;-74
2023/03/18 19:21:39;;;;;;;5.55;2.13;;;;;;;11.36;100.00;100908.63;10416226;28;20060;-74
2023/03/18 19:26:40;;;;;;;3.50;2.20;;;;;;;11.24;100.00;100918.34;10414115;28;20496;-74
2023/03/18 19:31:40;;;;;;;5.47;2.40;;;;;;;11.25;100.00;100930.88;10415128;28;20123;-73
2023/03/18 19:36:41;;;;;;;5.50;2.60;;;;;;;11.33;100.00;100925.28;10413840;28;20041;-73
2023/03/18 19:41:42;;;;;;;6.75;3.30;;;;;;;11.39;100.00;100927.19;10413249;28;20060;-73
2023/03/18 19:46:43;;;;;;;5.40;4.10;;;;;;;11.40;100.00;100922.59;10412737;28;20034;-73
2023/03/18 19:51:43;;;;;;;8.68;3.20;;;;;;;11.45;100.00;100928.25;10413291;28;20477;-73
2023/03/18 19:56:45;;;;;;;9.90;4.45;;;;;;;11.48;100.00;100929.72;10414196;28;20373;-74
2023/03/18 20:01:46;;;;;;;7.60;3.13;;;;;;;11.34;100.00;100935.09;10415128;28;20069;-74
2023/03/18 20:06:46;;;;;;;7.07;3.55;;;;;;;11.33;100.00;100949.69;10416583;28;20034;-72
2023/03/18 20:11:48;;;;;;;8.63;4.72;;;;;;;11.33;100.00;100938.84;10421058;28;20037;-74
2023/03/18 20:16:48;;;;;;;7.18;4.45;;;;;;;11.28;100.00;100945.91;10402982;28;20029;-74
2023/03/18 20:21:48;;;;;;;5.53;4.10;;;;;;;11.31;100.00;100949.03;10418955;28;20465;-74
2023/03/18 20:26:49;;;;;;;9.15;6.18;;;;;;;11.32;100.00;100953.41;10403099;28;20083;-74
2023/03/18 20:31:49;;;;;;;7.05;5.47;;;;;;;11.30;100.00;100960.94;10419301;28;20099;-74
2023/03/18 20:36:50;;;;;;;8.30;4.25;;;;;;;11.25;100.00;100963.41;10419722;28;20053;-75
2023/03/18 20:41:51;;;;;;;5.22;4.70;;;;;;;11.18;100.00;100967.94;10418738;28;20061;-76
2023/03/18 20:46:52;;;;;;;4.82;4.35;;;;;;;11.10;100.00;100973.53;10421157;28;20132;-75
2023/03/18 20:51:53;;;;;;;7.00;5.40;;;;;;;11.08;100.00;100976.44;10420443;28;20129;-75
2023/03/18 20:56:53;;;;;;;7.30;5.50;;;;;;;11.09;100.00;100980.81;10419231;28;20120;-75
2023/03/18 21:01:53;;;;;;;10.23;7.38;;;;;;;11.03;100.00;100978.06;10420067;28;20042;-75
2023/03/18 21:06:54;;;;;;;7.22;5.90;;;;;;;11.03;100.00;100978.91;10420284;28;20539;-75
2023/03/18 21:11:54;;;;;;;19.63;6.85;;;;;;;11.10;100.00;100977.09;10422656;28;20110;-75
2023/03/18 21:16:56;;;;;;;11.30;7.30;;;;;;;11.19;100.00;100985.88;10418258;28;20045;-75
2023/03/18 21:21:56;;;;;;;6.35;5.78;;;;;;;11.16;100.00;100987.09;10419122;28;20112;-76
2023/03/18 21:26:57;;;;;;;8.23;6.55;;;;;;;11.16;100.00;100984.41;10418637;28;20457;-75
2023/03/18 21:31:58;;;;;;;8.35;7.50;;;;;;;11.17;100.00;100985.25;10400815;28;20081;-75
2023/03/18 21:36:59;;;;;;;7.10;6.40;;;;;;;11.11;100.00;100986.06;10419547;28;20045;-76
2023/03/18 21:41:59;;;;;;;10.18;8.13;;;;;;;11.05;100.00;100984.13;10417920;28;20037;-74
2023/03/18 21:47:00;;;;;;;8.63;5.45;;;;;;;10.96;100.00;100986.16;10417197;28;20029;-74
2023/03/18 21:52:01;;;;;;;6.22;5.22;;;;;;;10.87;100.00;100982.75;10418358;28;20175;-76
2023/03/18 21:57:01;;;;;;;5.00;4.55;;;;;;;10.80;100.00;100976.44;10416470;28;20030;-79
2023/03/18 22:02:02;;;;;;;7.13;5.90;;;;;;;10.66;100.00;100969.28;10418545;28;20030;-76
2023/03/18 22:07:02;;;;;;;12.15;5.38;;;;;;;10.65;100.00;100975.72;10416913;28;20034;-78
2023/03/18 22:12:03;;;;;;;5.13;4.63;;;;;;;10.56;100.00;100977.75;10416935;28;20065;-78
2023/03/18 22:17:03;;;;;;;8.38;5.45;;;;;;;10.60;100.00;100979.00;10416079;28;20033;-77
2023/03/18 22:22:10;;;;;;;5.97;5.38;;;;;;;10.64;100.00;100976.75;10419050;28;20068;-79
2023/03/18 22:27:31;;;;;;;8.35;6.78;;;;;;;10.60;100.00;100975.47;10403248;28;20038;-77
2023/03/18 22:32:36;;;;;;;6.43;5.55;;;;;;;10.57;100.00;100968.56;10418110;28;20107;-76
2023/03/18 22:37:37;;;;;;;7.80;5.53;;;;;;;10.46;100.00;100967.25;10400171;28;20049;-75
2023/03/18 22:42:37;;;;;;;6.22;5.72;;;;;;;10.45;100.00;100973.66;10417698;28;20044;-75
2023/03/18 22:47:38;;;;;;;9.35;5.97;;;;;;;10.47;100.00;100968.91;10416416;28;20049;-77
2023/03/18 22:52:38;;;;;;;4.82;4.43;;;;;;;10.43;100.00;100966.78;10415899;28;20033;-76